Time;durP1;ratioP1;P1;durP2;ratioP2;P2;SDS_P1;SDS_P2;PMS_P1;PMS_P2;Temp;Humidity;BMP_temperature;BMP_pressure;BME280_temperature;BME280_humidity;BME280_pressure;Samples;Min_cycle;Max_cycle;Signal;HPM_P1;HPM_P2
2021/08/21 00:01:10;;;;;;;16.95;12.35;;;;;;;-142.75;84.78;77109.69;4990938;28;20370;-78
2021/08/21 00:03:35;;;;;;;;;;;;;;;-142.75;84.52;77111.66;4991191;28;20034;-79
2021/08/21 00:06:00;;;;;;;20.70;13.73;;;;;;;-142.75;84.47;77113.63;4990588;28;20523;-77
2021/08/21 00:08:26;;;;;;;;;;;;;;;-142.75;85.05;77090.00;5016861;28;20119;-78
2021/08/21 00:10:51;;;;;;;18.92;12.88;;;;;;;-142.75;85.10;77101.81;4999547;28;19940;-77
2021/08/21 00:13:16;;;;;;;;;;;;;;;-142.75;84.81;77111.66;4989304;28;20029;-77
2021/08/21 00:15:42;;;;;;;16.73;7.93;;;;;;;-142.75;84.54;77117.56;5055862;28;19914;-77
2021/08/21 00:18:07;;;;;;;;;;;;;;;-142.75;84.41;77121.50;4989388;28;20111;-77
2021/08/21 00:20:33;;;;;;;14.60;6.88;;;;;;;-142.75;84.12;77121.50;5035326;28;20008;-77
2021/08/21 00:22:58;;;;;;;;;;;;;;;-142.75;84.21;77113.63;4990148;28;20487;-78
2021/08/21 00:25:23;;;;;;;10.52;7.20;;;;;;;-142.75;84.30;77113.63;4990246;28;19917;-78
2021/08/21 00:27:48;;;;;;;;;;;;;;;-142.75;84.05;77109.69;5023277;28;20511;-78
2021/08/21 00:30:14;;;;;;;9.98;7.18;;;;;;;-142.75;83.72;77109.69;5022923;28;19920;-78
2021/08/21 00:32:40;;;;;;;;;;;;;;;-142.75;83.51;77105.75;5018415;28;20053;-77
2021/08/21 00:35:07;;;;;;;21.63;15.15;;;;;;;-142.75;83.90;77090.00;4999816;28;19920;-78
2021/08/21 00:37:32;;;;;;;31.63;21.55;;;;;;;-142.75;84.85;77074.25;4989367;28;20022;-77
2021/08/21 00:39:58;;;;;;;;;;;;;;;-142.75;85.50;77068.34;5049367;28;20491;-75
2021/08/21 00:42:23;;;;;;;31.80;24.83;;;;;;;-142.75;86.44;77072.28;5048381;28;19913;-77
2021/08/21 00:44:48;;;;;;;;;;;;;;;-142.75;87.34;77068.34;4989223;28;20030;-78
2021/08/21 00:47:18;;;;;;;36.03;24.85;;;;;;;-142.75;88.16;77074.25;4987287;28;20297;-78
2021/08/21 00:49:52;;;;;;;31.95;23.95;;;;;;;-142.75;88.66;77070.31;4990123;28;20057;-78
2021/08/21 00:52:26;;;;;;;35.88;25.40;;;;;;;-142.75;88.84;77070.31;4987853;28;20041;-78
2021/08/21 00:54:52;;;;;;;30.52;23.02;;;;;;;-142.75;89.15;77070.31;5007469;28;20027;-78
2021/08/21 00:57:18;;;;;;;;;;;;;;;-142.75;89.32;77064.41;4988993;28;20038;-78
2021/08/21 00:59:47;;;;;;;31.25;22.80;;;;;;;-142.75;89.26;77066.38;4989327;28;19971;-78
2021/08/21 01:02:14;;;;;;;21.23;16.05;;;;;;;-142.75;89.16;77058.50;4989139;28;20065;-77
2021/08/21 01:04:46;;;;;;;25.48;16.05;;;;;;;-142.75;88.65;77068.34;5011985;28;20034;-77
2021/08/21 01:07:13;;;;;;;24.70;16.50;;;;;;;-142.75;88.16;77072.28;4971471;28;20050;-76
2021/08/21 01:09:40;;;;;;;23.27;16.17;;;;;;;-142.75;87.91;77066.38;4989116;28;20568;-78
2021/08/21 01:12:07;;;;;;;28.38;20.60;;;;;;;-142.75;87.40;77078.19;4987651;28;20029;-77
2021/08/21 01:14:33;;;;;;;31.00;22.48;;;;;;;-142.75;87.13;77076.22;4988045;28;20023;-78
2021/08/21 01:16:58;;;;;;;;;;;;;;;-142.75;86.87;77076.22;4988466;28;20034;-77
2021/08/21 01:19:24;;;;;;;20.55;15.52;;;;;;;-142.75;86.44;77078.19;4988054;28;20012;-79
2021/08/21 01:21:50;;;;;;;;;;;;;;;-142.75;85.61;77058.50;4989037;28;20400;-77
2021/08/21 01:24:15;;;;;;;27.73;16.02;;;;;;;-142.75;84.75;77074.25;4988863;28;19924;-78
2021/08/21 01:26:53;;;;;;;;;;;;;;;-142.75;84.51;77082.13;4990783;28;20031;-78
2021/08/21 01:29:18;;;;;;;40.97;22.90;;;;;;;-142.75;84.78;77082.13;4988988;28;19914;-77
2021/08/21 01:31:44;;;;;;;;;;;;;;;-142.75;85.30;77072.28;4979654;28;20019;-78
2021/08/21 01:34:09;;;;;;;49.67;30.38;;;;;;;-142.75;86.20;77068.34;5014254;28;20253;-77
2021/08/21 01:36:38;;;;;;;;;;;;;;;-142.75;86.89;77058.50;4988795;28;20018;-77
2021/08/21 01:39:03;;;;;;;32.72;21.05;;;;;;;-142.75;87.13;77058.50;5021339;28;19920;-78
2021/08/21 01:41:29;;;;;;;;;;;;;;;-142.75;87.17;77058.50;4989703;28;20030;-78
2021/08/21 01:43:54;;;;;;;47.40;30.73;;;;;;;-142.75;87.55;77050.63;5047153;28;19918;-76
2021/08/21 01:46:19;;;;;;;;;;;;;;;-142.75;87.46;77058.50;4988279;28;20026;-77
2021/08/21 01:48:44;;;;;;;27.42;16.67;;;;;;;-142.75;87.39;77066.38;4988023;28;19920;-77
2021/08/21 01:51:09;;;;;;;;;;;;;;;-142.75;86.96;77064.41;5012731;28;20499;-77
2021/08/21 01:53:35;;;;;;;29.10;14.38;;;;;;;-142.75;86.59;77080.16;5001088;28;19967;-79
2021/08/21 01:56:00;;;;;;;;;;;;;;;-142.75;85.89;77074.25;5001486;28;20712;-78
2021/08/21 01:58:25;;;;;;;15.45;9.13;;;;;;;-142.75;85.39;77078.19;4988949;28;19921;-79
2021/08/21 02:00:50;;;;;;;;;;;;;;;-142.75;84.89;77072.28;4982918;28;20034;-78
2021/08/21 02:03:17;;;;;;;19.63;12.02;;;;;;;-142.75;84.41;77082.13;4991807;28;19913;-79
2021/08/21 02:05:43;;;;;;;22.92;12.30;;;;;;;-142.75;83.72;77088.03;5000410;28;20476;-79
2021/08/21 02:08:08;;;;;;;;;;;;;;;-142.75;83.11;77097.88;4991289;28;20091;-78
2021/08/21 02:10:34;;;;;;;38.70;24.42;;;;;;;-142.75;83.00;77097.88;4989434;28;19914;-76
2021/08/21 02:12:59;;;;;;;;;;;;;;;-142.75;83.95;77097.88;5013912;28;20033;-77
2021/08/21 02:15:24;;;;;;;27.88;18.40;;;;;;;-142.75;84.69;77082.13;4991070;28;19918;-78
2021/08/21 02:17:49;;;;;;;;;;;;;;;-142.75;84.54;77097.88;5023139;28;20496;-79
2021/08/21 02:20:15;;;;;;;22.85;16.08;;;;;;;-142.75;84.26;77111.66;5019534;28;19920;-77
2021/08/21 02:22:42;;;;;;;25.90;15.02;;;;;;;-142.75;84.02;77119.53;5005940;28;20113;-77
2021/08/21 02:25:09;;;;;;;23.13;14.10;;;;;;;-142.75;83.94;77129.38;4996523;28;20035;-79
2021/08/21 02:27:40;;;;;;;32.83;16.92;;;;;;;-142.75;83.52;77133.31;5041234;28;20022;-77
2021/08/21 02:30:07;;;;;;;191.80;21.92;;;;;;;-142.75;83.57;77141.19;5006099;28;20051;-78
2021/08/21 02:32:32;;;;;;;28.42;19.85;;;;;;;-142.75;83.66;77149.06;4989470;28;20034;-78
2021/08/21 02:34:58;;;;;;;26.80;19.77;;;;;;;-142.75;84.45;77153.00;5016878;28;20022;-76
2021/08/21 02:37:23;;;;;;;;;;;;;;;-142.75;85.08;77153.00;4994495;28;20067;-78
2021/08/21 02:39:48;;;;;;;31.30;20.05;;;;;;;-142.75;85.36;77154.97;4994933;28;20043;-78
2021/08/21 02:42:14;;;;;;;;;;;;;;;-142.75;85.56;77162.84;5000943;28;20461;-78
2021/08/21 02:44:39;;;;;;;28.10;17.50;;;;;;;-142.75;85.67;77162.84;5043453;28;19924;-79
2021/08/21 02:47:05;;;;;;;;;;;;;;;-142.75;85.73;77158.91;4995499;28;20113;-79
2021/08/21 02:49:31;;;;;;;13.80;9.48;;;;;;;-142.75;85.92;77137.25;4994540;28;19971;-77
2021/08/21 02:51:56;;;;;;;;;;;;;;;-142.75;85.70;77119.53;5043110;28;20035;-78
2021/08/21 02:54:21;;;;;;;22.27;14.05;;;;;;;-142.75;85.36;77109.69;5035385;28;20386;-77
2021/08/21 02:56:47;;;;;;;;;;;;;;;-142.75;85.12;77088.03;5021614;28;20014;-77
2021/08/21 02:59:12;;;;;;;19.73;13.18;;;;;;;-142.75;84.73;77080.16;5032804;28;19914;-77
2021/08/21 03:01:37;;;;;;;;;;;;;;;-142.75;84.76;77066.38;4994491;28;20045;-77
2021/08/21 03:04:02;;;;;;;70.95;38.65;;;;;;;-142.75;86.70;77058.50;4994266;28;20371;-77
2021/08/21 03:06:28;;;;;;;;;;;;;;;-142.75;88.14;77044.72;5020009;28;20038;-78
2021/08/21 03:08:53;;;;;;;34.63;22.30;;;;;;;-142.75;89.05;77046.69;4993978;28;19920;-78
2021/08/21 03:11:18;;;;;;;;;;;;;;;-142.75;89.30;77062.44;4993632;28;20046;-75
2021/08/21 03:13:43;;;;;;;24.27;13.85;;;;;;;-142.75;89.36;77076.22;5014607;28;19963;-78
2021/08/21 03:16:10;;;;;;;;;;;;;;;-142.75;89.54;77070.31;4993381;28;20049;-76
2021/08/21 03:18:35;;;;;;;21.13;12.63;;;;;;;-142.75;89.57;77068.34;4993168;28;19996;-77
2021/08/21 03:21:00;;;;;;;21.75;12.98;;;;;;;-142.75;89.04;77074.25;5031695;28;20176;-77
2021/08/21 03:23:26;;;;;;;32.85;21.00;;;;;;;-142.75;88.70;77090.00;5005540;28;20041;-77
2021/08/21 03:25:51;;;;;;;47.55;25.83;;;;;;;-142.75;88.57;77090.00;4993616;28;20445;-76
2021/08/21 03:28:16;;;;;;;;;;;;;;;-142.75;88.30;77082.13;4991238;28;20487;-78
2021/08/21 03:30:41;;;;;;;23.02;13.32;;;;;;;-142.75;88.45;77082.13;4990826;28;19921;-77
2021/08/21 03:33:08;;;;;;;;;;;;;;;-142.75;88.17;77066.38;4990084;28;20026;-77
2021/08/21 03:35:33;;;;;;;21.38;11.40;;;;;;;-142.75;87.92;77060.47;4989665;28;19953;-77
2021/08/21 03:37:59;;;;;;;;;;;;;;;-142.75;87.57;77056.53;4991092;28;20111;-77
2021/08/21 03:40:24;;;;;;;29.17;19.00;;;;;;;-142.75;87.24;77066.38;5033540;28;20275;-77
2021/08/21 03:42:49;;;;;;;;;;;;;;;-142.75;87.83;77086.06;5003269;28;20027;-77
2021/08/21 03:45:14;;;;;;;40.35;24.55;;;;;;;-142.75;88.75;77086.06;5030550;28;19917;-77
2021/08/21 03:47:40;;;;;;;;;;;;;;;-142.75;89.75;77086.06;5050463;28;20062;-78
2021/08/21 03:50:05;;;;;;;57.35;31.77;;;;;;;-142.75;90.49;77090.00;4989342;28;20012;-77
2021/08/21 03:52:31;;;;;;;;;;;;;;;-142.75;91.31;77080.16;4990313;28;20026;-76
2021/08/21 03:54:56;;;;;;;54.20;30.33;;;;;;;-142.75;91.36;77062.44;4990089;28;20310;-77
2021/08/21 03:57:21;;;;;;;;;;;;;;;-142.75;91.86;77070.31;5028526;28;20064;-77
2021/08/21 03:59:47;;;;;;;32.72;20.15;;;;;;;-142.75;92.21;77076.22;5003353;28;19914;-78
2021/08/21 04:02:12;;;;;;;;;;;;;;;-142.75;92.32;77084.09;5024105;28;20546;-78
2021/08/21 04:04:37;;;;;;;43.25;26.17;;;;;;;-142.75;92.20;77090.00;4990317;28;19920;-77
2021/08/21 04:07:02;;;;;;;;;;;;;;;-142.75;92.71;77090.00;4990348;28;20038;-77
2021/08/21 04:09:28;;;;;;;60.78;31.67;;;;;;;-142.75;92.88;77082.13;4991061;28;19956;-77
2021/08/21 04:11:53;;;;;;;;;;;;;;;-142.75;93.16;77078.19;5027824;28;20171;-76
2021/08/21 04:14:18;;;;;;;62.47;32.90;;;;;;;-142.75;93.39;77082.13;5021765;28;20016;-76
2021/08/21 04:16:43;;;;;;;;;;;;;;;-142.75;93.57;77076.22;5013659;28;20484;-78
2021/08/21 04:19:09;;;;;;;67.30;35.15;;;;;;;-142.75;93.88;77070.31;4990319;28;19913;-77
2021/08/21 04:21:35;;;;;;;;;;;;;;;-142.75;94.00;77058.50;4989919;28;20027;-78
2021/08/21 04:24:01;;;;;;;69.15;34.75;;;;;;;-142.75;94.29;77060.47;4990747;28;19918;-77
2021/08/21 04:26:26;;;;;;;72.68;34.67;;;;;;;-142.75;94.50;77046.69;4990432;28;20159;-76
2021/08/21 04:28:51;;;;;;;;;;;;;;;-142.75;94.71;77038.81;5019966;28;20492;-77
2021/08/21 04:31:17;;;;;;;75.07;36.03;;;;;;;-142.75;94.86;77032.91;5000642;28;19920;-76
2021/08/21 04:33:42;;;;;;;;;;;;;;;-142.75;94.97;77034.88;5007091;28;20030;-77
2021/08/21 04:36:07;;;;;;;73.47;36.13;;;;;;;-142.75;95.22;77032.91;5031470;28;19914;-78
2021/08/21 04:38:32;;;;;;;;;;;;;;;-142.75;95.55;77034.88;5025241;28;20030;-77
2021/08/21 04:40:58;;;;;;;75.15;34.50;;;;;;;-142.75;95.76;77042.75;4988691;28;20124;-76
2021/08/21 04:43:23;;;;;;;;;;;;;;;-142.75;96.12;77034.88;4989947;28;20109;-78
2021/08/21 04:45:49;;;;;;;69.95;33.28;;;;;;;-142.75;96.33;77038.81;4988893;28;19945;-76
2021/08/21 04:48:14;;;;;;;;;;;;;;;-142.75;96.44;77034.88;4989640;28;20526;-77
2021/08/21 04:50:39;;;;;;;68.30;33.85;;;;;;;-142.75;96.54;77030.94;4988719;28;19917;-77
2021/08/21 04:53:05;;;;;;;;;;;;;;;-142.75;96.54;77036.84;5061672;22;20046;-75
2021/08/21 04:55:32;;;;;;;72.20;35.10;;;;;;;-142.75;96.63;77038.81;5026805;28;19924;-76
2021/08/21 04:57:58;;;;;;;79.68;36.03;;;;;;;-142.75;96.79;77048.66;5027158;28;20428;-75
2021/08/21 05:00:25;;;;;;;83.32;35.47;;;;;;;-142.75;97.02;77038.81;5027388;28;20085;-75
2021/08/21 05:02:51;;;;;;;74.57;33.97;;;;;;;-142.75;97.01;77038.81;5031785;28;20081;-76
2021/08/21 05:05:17;;;;;;;74.82;35.78;;;;;;;-142.75;97.13;77040.78;5045956;28;20104;-76
2021/08/21 05:07:45;;;;;;;;;;;;;;;-142.75;97.08;77034.88;5029817;28;20481;-77
2021/08/21 05:10:15;;;;;;;69.05;32.97;;;;;;;-142.75;97.01;77030.94;5028441;28;19968;-76
2021/08/21 05:12:40;;;;;;;69.72;32.97;;;;;;;-142.75;97.19;77034.88;5039609;28;20100;-75
2021/08/21 05:15:06;;;;;;;;;;;;;;;-142.75;96.99;77050.63;5029337;28;20473;-76
2021/08/21 05:17:32;;;;;;;66.65;33.83;;;;;;;-142.75;97.13;77046.69;5035033;28;19917;-76
2021/08/21 05:20:04;;;;;;;76.65;36.67;;;;;;;-142.75;96.97;77038.81;5047153;28;20044;-75
2021/08/21 05:22:40;;;;;;;75.60;36.22;;;;;;;-142.75;97.09;77032.91;5045808;28;20069;-76
2021/08/21 05:25:06;;;;;;;82.20;36.75;;;;;;;-142.75;97.12;77040.78;5043041;28;20090;-76
2021/08/21 05:27:32;;;;;;;;;;;;;;;-142.75;97.27;77028.97;5029949;28;20476;-75
2021/08/21 05:29:58;;;;;;;80.00;37.63;;;;;;;-142.75;97.35;77034.88;5028135;28;19913;-77
2021/08/21 05:32:23;;;;;;;;;;;;;;;-142.75;97.22;77040.78;5040642;28;20039;-77
2021/08/21 05:34:48;;;;;;;78.10;36.38;;;;;;;-142.75;97.39;77044.72;5072151;28;19925;-77
2021/08/21 05:37:13;;;;;;;81.95;36.92;;;;;;;-142.75;97.30;77044.72;5030009;28;20029;-75
2021/08/21 05:39:39;;;;;;;79.88;37.10;;;;;;;-142.75;97.39;77027.00;5045239;28;20028;-75
2021/08/21 05:42:04;;;;;;;77.40;36.00;;;;;;;-142.75;97.33;77030.94;5046606;28;20025;-75
2021/08/21 05:44:29;;;;;;;;;;;;;;;-142.75;97.33;77009.28;5047013;28;20124;-76
2021/08/21 05:46:55;;;;;;;71.65;35.13;;;;;;;-142.75;97.25;76999.44;5042415;28;19917;-76
2021/08/21 05:49:20;;;;;;;;;;;;;;;-142.75;96.92;76989.59;5098118;28;20028;-76
2021/08/21 05:51:45;;;;;;;82.28;36.30;;;;;;;-142.75;96.71;76977.78;5040407;28;19966;-76
2021/08/21 05:54:10;;;;;;;65.47;34.00;;;;;;;-142.75;95.77;76946.28;5026060;28;20029;-76
2021/08/21 05:56:36;;;;;;;;;;;;;;;-142.75;95.25;76932.50;5026957;28;20397;-75
2021/08/21 05:59:01;;;;;;;62.10;31.45;;;;;;;-142.75;94.63;76928.56;5027701;28;19917;-76
2021/08/21 06:01:27;;;;;;;;;;;;;;;-142.75;94.02;76932.50;5027330;28;20024;-76
2021/08/21 06:03:52;;;;;;;59.05;30.40;;;;;;;-142.75;93.61;76920.69;5066311;28;20393;-76
2021/08/21 06:06:21;;;;;;;;;;;;;;;-142.75;92.89;76901.00;5033200;28;20109;-75
2021/08/21 06:08:46;;;;;;;56.85;30.55;;;;;;;-142.75;92.74;76897.06;5035032;28;19957;-75
2021/08/21 06:11:11;;;;;;;;;;;;;;;-142.75;91.50;76875.41;5029688;28;20025;-76
2021/08/21 06:13:37;;;;;;;53.17;28.10;;;;;;;-142.75;90.64;76853.75;5028149;28;20313;-75
2021/08/21 06:16:02;;;;;;;;;;;;;;;-142.75;89.45;76830.13;5031170;28;20029;-77
2021/08/21 06:18:27;;;;;;;46.70;26.40;;;;;;;-142.75;88.36;76782.91;5028366;28;19920;-76
2021/08/21 06:20:53;;;;;;;;;;;;;;;-142.75;86.00;76745.50;5037979;28;20236;-75
2021/08/21 06:23:18;;;;;;;47.10;26.08;;;;;;;-142.75;83.66;76696.28;5044004;28;20003;-76
2021/08/21 06:25:43;;;;;;;;;;;;;;;-142.75;81.96;76670.69;5039121;28;20021;-76
2021/08/21 06:28:08;;;;;;;40.67;22.98;;;;;;;-142.75;79.75;76613.59;5027992;28;19913;-77
2021/08/21 06:30:34;;;;;;;;;;;;;;;-142.75;78.51;76625.41;5049932;28;20510;-76
2021/08/21 06:32:59;;;;;;;36.55;22.58;;;;;;;-142.75;77.93;76664.78;5041281;28;19919;-76
2021/08/21 06:35:25;;;;;;;40.22;23.33;;;;;;;-142.75;78.21;76651.00;5043933;28;20066;-77
2021/08/21 06:37:50;;;;;;;;;;;;;;;-142.75;78.44;76637.22;5035251;28;20107;-76
2021/08/21 06:40:15;;;;;;;38.08;24.25;;;;;;;-142.75;79.05;76690.38;5029055;28;19958;-75
2021/08/21 06:42:40;;;;;;;;;;;;;;;-142.75;78.96;76664.78;5032861;28;20021;-76
2021/08/21 06:45:06;;;;;;;37.65;23.13;;;;;;;-142.75;78.64;76664.78;5049951;28;19913;-76
2021/08/21 06:47:33;;;;;;;40.22;22.63;;;;;;;-142.75;77.91;76619.50;5065235;28;20129;-76
2021/08/21 06:49:58;;;;;;;33.47;20.50;;;;;;;-142.75;75.60;76593.91;5037765;28;20021;-76
2021/08/21 06:52:23;;;;;;;32.33;20.20;;;;;;;-142.75;74.23;76582.09;5037018;28;20501;-78
2021/08/21 06:54:49;;;;;;;;;;;;;;;-142.75;73.39;76570.28;5031590;28;20021;-76
2021/08/21 06:57:14;;;;;;;30.98;17.65;;;;;;;-142.75;72.68;76562.41;5033777;28;20275;-76
2021/08/21 06:59:39;;;;;;;;;;;;;;;-142.75;73.03;76556.50;5038026;28;20100;-76
2021/08/21 07:02:05;;;;;;;25.65;17.15;;;;;;;-142.75;72.54;76586.03;5056234;28;20362;-76
2021/08/21 07:04:30;;;;;;;;;;;;;;;-142.75;72.16;76570.28;5037236;28;20057;-77
2021/08/21 07:06:55;;;;;;;27.40;16.85;;;;;;;-142.75;72.65;76572.25;5047824;28;19928;-78
2021/08/21 07:09:20;;;;;;;23.92;15.73;;;;;;;-142.75;72.63;76544.69;5035672;28;20029;-77
2021/08/21 07:11:46;;;;;;;27.88;17.25;;;;;;;-142.75;72.07;76521.09;5038187;28;20572;-77
2021/08/21 07:14:11;;;;;;;27.88;16.85;;;;;;;-142.75;70.65;76505.34;5044186;28;20040;-74
2021/08/21 07:16:36;;;;;;;;;;;;;;;-142.75;70.81;76471.88;5031870;28;20028;-78
2021/08/21 07:19:02;;;;;;;23.88;15.25;;;;;;;-142.75;69.78;76458.09;5045885;28;19912;-76
2021/08/21 07:21:27;;;;;;;23.83;16.67;;;;;;;-142.75;69.01;76475.81;5042195;28;20486;-76
2021/08/21 07:23:52;;;;;;;;;;;;;;;-142.75;69.34;76467.94;5038720;28;20073;-77
2021/08/21 07:26:18;;;;;;;26.13;16.20;;;;;;;-142.75;69.40;76487.63;5029083;28;20381;-75
2021/08/21 07:28:43;;;;;;;21.45;14.68;;;;;;;-142.75;67.84;76424.63;5032639;28;20025;-76
2021/08/21 07:31:08;;;;;;;21.77;13.98;;;;;;;-142.75;65.96;76357.69;5047423;28;20032;-75
2021/08/21 07:33:33;;;;;;;22.60;14.05;;;;;;;-142.75;63.82;76349.81;5048629;28;20031;-77
2021/08/21 07:35:59;;;;;;;20.60;13.63;;;;;;;-142.75;64.38;76373.44;5048224;28;20032;-76
2021/08/21 07:38:24;;;;;;;23.05;13.75;;;;;;;-142.75;64.63;76361.63;5047985;28;20694;-76
2021/08/21 07:40:50;;;;;;;18.90;13.50;;;;;;;-142.75;65.11;76381.31;5031791;28;20021;-76
2021/08/21 07:43:15;;;;;;;21.58;14.35;;;;;;;-142.75;65.68;76375.41;5028227;28;20518;-76
2021/08/21 07:45:42;;;;;;;21.42;13.63;;;;;;;-142.75;63.57;76278.97;5047888;28;20032;-75
2021/08/21 07:48:08;;;;;;;20.65;14.25;;;;;;;-142.75;61.76;76212.03;5036375;28;20479;-76
2021/08/21 07:50:33;;;;;;;20.75;14.35;;;;;;;-142.75;60.01;76139.22;5027530;28;20105;-76
2021/08/21 07:52:58;;;;;;;23.15;13.07;;;;;;;-142.75;57.95;76054.59;5082471;28;20542;-76
2021/08/21 07:55:25;;;;;;;19.33;13.52;;;;;;;-142.75;57.26;76027.03;5087218;28;20037;-76
2021/08/21 07:57:50;;;;;;;18.50;12.80;;;;;;;-142.75;55.66;76007.34;5027705;28;20378;-76
2021/08/21 08:00:16;;;;;;;21.98;14.00;;;;;;;-142.75;55.92;75969.94;5032641;28;20096;-76
2021/08/21 08:02:47;;;;;;;18.88;12.95;;;;;;;-142.75;54.58;75905.00;5048033;28;20061;-77
2021/08/21 08:05:13;;;;;;;20.08;13.23;;;;;;;-142.75;53.60;75855.81;5077871;28;20174;-75
2021/08/21 08:07:38;;;;;;;19.15;13.23;;;;;;;-142.75;52.38;75885.31;5033230;28;20025;-76
2021/08/21 08:10:04;;;;;;;18.38;12.60;;;;;;;-142.75;53.23;75922.72;5045345;28;20029;-77
2021/08/21 08:12:29;;;;;;;17.40;12.57;;;;;;;-142.75;52.72;75887.28;5030133;28;20047;-76
2021/08/21 08:14:55;;;;;;;18.40;12.52;;;;;;;-142.75;52.02;75822.34;5033120;28;20025;-76
2021/08/21 08:17:20;;;;;;;17.95;12.35;;;;;;;-142.75;50.81;75808.56;5038984;28;20108;-78
2021/08/21 08:19:45;;;;;;;18.55;12.27;;;;;;;-142.75;51.37;75869.56;5041476;28;20045;-78
2021/08/21 08:22:10;;;;;;;17.73;13.07;;;;;;;-142.75;50.36;75786.91;5045924;28;20024;-79
2021/08/21 08:24:36;;;;;;;18.15;13.30;;;;;;;-142.75;52.53;75954.22;5043852;28;20068;-79
2021/08/21 08:27:01;;;;;;;15.48;12.32;;;;;;;-142.75;51.32;75855.81;5089954;28;20037;-78
2021/08/21 08:29:27;;;;;;;15.48;11.75;;;;;;;-142.75;52.66;75914.84;5042679;28;20025;-78
2021/08/21 08:31:52;;;;;;;15.82;11.15;;;;;;;-142.75;52.04;75781.00;5031945;28;20037;-79
2021/08/21 08:34:17;;;;;;;19.20;12.10;;;;;;;-142.75;50.77;75721.97;5044081;28;20320;-75
2021/08/21 08:36:42;;;;;;;17.17;12.20;;;;;;;-142.75;49.56;75845.97;5037119;28;20374;-78
2021/08/21 08:39:08;;;;;;;17.35;12.43;;;;;;;-142.75;51.59;75863.66;5037403;28;20024;-78
2021/08/21 08:41:34;;;;;;;18.92;13.07;;;;;;;-142.75;53.06;75906.97;5042152;28;20690;-78
2021/08/21 08:44:01;;;;;;;17.25;11.75;;;;;;;-142.75;52.81;75964.03;5032662;28;20026;-79
2021/08/21 08:46:26;;;;;;;18.75;11.82;;;;;;;-142.75;53.70;75983.72;5035056;28;20078;-78
2021/08/21 08:48:53;;;;;;;15.43;11.95;;;;;;;-142.75;54.22;75993.56;5068998;28;20041;-78
2021/08/21 08:51:20;;;;;;;16.95;12.50;;;;;;;-142.75;52.44;75842.03;5047346;28;20506;-79
2021/08/21 08:53:45;;;;;;;17.20;12.98;;;;;;;-142.75;53.39;75995.53;5068923;28;20053;-82
2021/08/21 08:56:11;;;;;;;19.38;13.85;;;;;;;-142.75;53.04;75964.03;5049628;28;20056;-78
2021/08/21 08:58:36;;;;;;;15.82;11.60;;;;;;;-142.75;53.58;75969.94;5046354;28;20137;-80
2021/08/21 09:01:02;;;;;;;16.33;11.65;;;;;;;-142.75;54.57;76048.69;5042335;28;20486;-78
2021/08/21 09:03:28;;;;;;;14.77;11.65;;;;;;;-142.75;54.33;75969.94;5046116;28;20040;-77
2021/08/21 09:05:54;;;;;;;17.45;12.38;;;;;;;-142.75;54.35;75966.00;5036212;28;20556;-78
2021/08/21 09:08:26;;;;;;;15.60;11.77;;;;;;;-142.75;52.94;75936.50;5048264;28;20486;-79
2021/08/21 09:10:56;;;;;;;16.95;11.30;;;;;;;-142.75;52.32;75897.13;5039169;28;20542;-79
2021/08/21 09:13:22;;;;;;;14.95;10.65;;;;;;;-142.75;50.02;75798.72;5038157;28;20033;-79
2021/08/21 09:15:52;;;;;;;15.07;9.57;;;;;;;-142.75;48.30;75718.03;5040679;28;20031;-79
2021/08/21 09:18:22;;;;;;;12.98;9.52;;;;;;;-142.75;49.36;75786.91;5041005;28;20040;-77
2021/08/21 09:20:47;;;;;;;16.27;10.15;;;;;;;-142.75;51.22;75954.22;5045981;28;20072;-76
2021/08/21 09:23:41;;;;;;;15.13;10.23;;;;;;;-142.75;53.04;75956.19;5044818;28;20490;-79
2021/08/21 09:26:12;;;;;;;16.65;9.75;;;;;;;-142.75;50.51;75851.88;5043861;28;20355;-77
2021/08/21 09:28:39;;;;;;;16.40;9.02;;;;;;;-142.75;50.17;75769.19;5037203;28;20025;-77
2021/08/21 09:31:17;;;;;;;14.70;9.13;;;;;;;-142.75;49.80;75822.34;5041023;28;20017;-78
2021/08/21 09:34:05;;;;;;;13.05;8.73;;;;;;;-142.75;48.06;75708.19;5042419;28;20070;-82
2021/08/21 09:36:33;;;;;;;12.27;8.13;;;;;;;-142.75;48.21;75668.84;5059240;28;20073;-79
2021/08/21 09:39:00;;;;;;;14.60;7.70;;;;;;;-142.75;46.90;75607.81;5044467;28;20057;-78
2021/08/21 09:41:26;;;;;;;12.00;8.07;;;;;;;-142.75;46.92;75653.09;5037672;28;20045;-80
2021/08/21 09:44:06;;;;;;;12.85;8.07;;;;;;;-142.75;45.08;75452.34;5046706;28;20093;-80
2021/08/21 09:46:31;;;;;;;13.25;8.68;;;;;;;-142.75;45.89;75590.13;5043200;28;20021;-78
2021/08/21 09:49:06;;;;;;;12.23;7.78;;;;;;;-142.75;47.33;75637.34;5039453;28;20430;-78
2021/08/21 09:51:51;;;;;;;11.93;8.82;;;;;;;-142.75;46.80;75645.22;5040678;28;20025;-81
2021/08/21 09:54:20;;;;;;;11.90;9.15;;;;;;;-142.75;47.15;75704.25;5035631;28;20124;-79
2021/08/21 09:56:55;;;;;;;12.65;7.93;;;;;;;-142.75;45.37;75586.19;5059590;28;20075;-80
2021/08/21 09:59:39;;;;;;;13.57;7.97;;;;;;;-142.75;45.04;75519.25;5041703;28;20053;-80
2021/08/21 10:02:07;;;;;;;11.57;7.15;;;;;;;-142.75;44.91;75529.09;5034348;28;20077;-77
2021/08/21 10:04:33;;;;;;;11.23;8.50;;;;;;;-142.75;45.71;75688.50;5043469;28;20025;-82
2021/08/21 10:07:03;;;;;;;12.10;8.95;;;;;;;-142.75;47.42;75737.72;5044685;28;20112;-79
2021/08/21 10:09:29;;;;;;;13.20;8.48;;;;;;;-142.75;47.52;75692.44;5040884;28;20021;-80
2021/08/21 10:11:55;;;;;;;11.10;7.95;;;;;;;-142.75;47.67;75704.25;5044036;28;20025;-80
2021/08/21 10:14:23;;;;;;;12.88;8.00;;;;;;;-142.75;47.23;75692.44;5039252;28;20578;-79
2021/08/21 10:16:49;;;;;;;12.07;6.72;;;;;;;-142.75;45.33;75535.00;5042637;28;20021;-79
2021/08/21 10:19:18;;;;;;;13.75;8.18;;;;;;;-142.75;43.45;75464.16;5039207;28;20036;-79
2021/08/21 10:21:49;;;;;;;12.32;8.40;;;;;;;-142.75;45.88;75621.59;5047843;28;20112;-81
2021/08/21 10:24:28;;;;;;;10.73;7.97;;;;;;;-142.75;45.03;75483.84;5070059;28;20498;-79
2021/08/21 10:27:00;;;;;;;12.32;8.48;;;;;;;-142.75;44.03;75590.13;5044304;28;20155;-80
2021/08/21 10:29:25;;;;;;;12.27;7.70;;;;;;;-142.75;44.23;75562.56;5071674;28;20075;-81
2021/08/21 10:31:51;;;;;;;14.20;8.20;;;;;;;-142.75;46.29;75702.28;5061825;28;20414;-78
2021/08/21 10:34:16;;;;;;;13.98;8.82;;;;;;;-142.75;47.34;75759.38;5040621;28;20458;-77
2021/08/21 10:36:48;;;;;;;14.00;8.82;;;;;;;-142.75;48.16;75796.75;5040508;28;20036;-80
2021/08/21 10:39:15;;;;;;;14.55;9.07;;;;;;;-142.75;47.38;75822.34;5057334;28;20021;-81
2021/08/21 10:41:40;;;;;;;12.88;9.48;;;;;;;-142.75;47.16;75749.53;5042028;28;20034;-80
2021/08/21 10:44:06;;;;;;;14.45;8.80;;;;;;;-142.75;47.93;75694.41;5045438;28;20391;-79
2021/08/21 10:46:32;;;;;;;14.50;8.50;;;;;;;-142.75;45.75;75660.97;5038029;28;20037;-81
2021/08/21 10:49:03;;;;;;;13.33;7.97;;;;;;;-142.75;46.83;75700.31;5049637;28;20077;-78
2021/08/21 10:51:40;;;;;;;15.52;9.40;;;;;;;-142.75;45.65;75655.06;5039290;28;20788;-77
2021/08/21 10:54:27;;;;;;;14.25;8.73;;;;;;;-142.75;47.93;75710.16;5034987;22;20043;-74
2021/08/21 10:56:54;;;;;;;13.82;9.35;;;;;;;-142.75;46.45;75603.88;4999802;28;20033;-73
2021/08/21 10:59:39;;;;;;;14.38;10.45;;;;;;;-142.75;44.97;75523.19;4998708;28;20061;-76
2021/08/21 11:02:23;;;;;;;14.35;10.10;;;;;;;-142.75;43.53;75489.75;5002565;28;20029;-75
2021/08/21 11:04:48;;;;;;;14.88;9.82;;;;;;;-142.75;44.18;75558.63;5077540;28;20021;-75
2021/08/21 11:07:32;;;;;;;13.30;9.57;;;;;;;-142.75;43.95;75535.00;5004276;28;20034;-76
2021/08/21 11:10:17;;;;;;;15.27;10.32;;;;;;;-142.75;44.04;75531.06;5002395;28;20460;-76
2021/08/21 11:12:47;;;;;;;11.52;9.18;;;;;;;-142.75;45.24;75601.91;4993299;28;20255;-75
2021/08/21 11:15:33;;;;;;;12.57;9.48;;;;;;;-142.75;45.94;75619.63;5074912;28;20040;-77
2021/08/21 11:17:59;;;;;;;16.55;9.45;;;;;;;-142.75;46.79;75712.13;4988715;28;20026;-77
2021/08/21 11:20:27;;;;;;;17.20;10.45;;;;;;;-142.75;47.33;75688.50;5057976;28;20534;-75